createdAt,value
2022-12-28T00:01:33.687Z,13.50
2022-12-28T00:05:50.777Z,13.60
2022-12-28T00:10:07.855Z,17.80
2022-12-28T00:14:25.352Z,17.10
2022-12-28T00:18:43.345Z,15.35
2022-12-28T00:23:00.527Z,13.10
2022-12-28T00:27:17.424Z,13.90
2022-12-28T00:31:34.770Z,16.70
2022-12-28T00:35:56.240Z,19.10
2022-12-28T00:40:15.423Z,15.80
2022-12-28T00:44:35.971Z,13.27
2022-12-28T00:48:52.975Z,11.35
2022-12-28T00:53:11.014Z,20.55
2022-12-28T00:57:27.941Z,20.38
2022-12-28T01:01:45.045Z,17.27
2022-12-28T01:06:07.071Z,18.25
2022-12-28T01:10:24.071Z,15.60
2022-12-28T01:14:41.154Z,16.45
2022-12-28T01:19:01.421Z,12.68
2022-12-28T01:23:18.539Z,13.80
2022-12-28T01:27:35.434Z,11.23
2022-12-28T01:31:52.575Z,12.38
2022-12-28T01:36:15.835Z,12.17
2022-12-28T01:40:32.881Z,12.60
2022-12-28T01:44:52.936Z,12.43
2022-12-28T01:49:40.338Z,25.33
2022-12-28T01:53:59.553Z,18.15
2022-12-28T01:58:25.261Z,13.98
2022-12-28T02:02:51.555Z,12.88
2022-12-28T02:07:09.312Z,10.77
2022-12-28T02:11:26.543Z,10.60
2022-12-28T02:15:45.096Z,10.63
2022-12-28T02:20:04.015Z,13.90
2022-12-28T02:24:49.908Z,11.45
2022-12-28T02:29:35.419Z,11.50
2022-12-28T02:34:08.810Z,11.50
2022-12-28T02:38:42.175Z,8.50
2022-12-28T02:43:01.626Z,9.48
2022-12-28T02:47:37.666Z,10.23
2022-12-28T02:52:07.585Z,12.48
2022-12-28T02:56:49.794Z,8.80
2022-12-28T03:01:18.840Z,10.05
2022-12-28T03:06:19.664Z,12.88
2022-12-28T03:10:52.076Z,10.60
2022-12-28T03:15:30.163Z,12.18
2022-12-28T03:20:16.934Z,11.93
2022-12-28T03:24:56.022Z,13.05
2022-12-28T03:29:35.312Z,13.57
2022-12-28T03:34:07.128Z,10.20
2022-12-28T03:38:58.059Z,13.35
2022-12-28T03:43:43.027Z,8.73
2022-12-28T03:48:03.032Z,9.68
2022-12-28T03:52:20.207Z,11.80
2022-12-28T03:56:47.654Z,7.55
2022-12-28T04:01:05.955Z,7.97
2022-12-28T04:05:22.963Z,9.90
2022-12-28T04:09:40.079Z,11.00
2022-12-28T04:13:57.166Z,9.43
2022-12-28T04:18:14.245Z,9.30
2022-12-28T04:22:31.130Z,7.53
2022-12-28T04:26:49.318Z,13.07
2022-12-28T04:35:25.063Z,9.27
2022-12-28T04:39:55.451Z,9.73
2022-12-28T04:44:13.705Z,9.65
2022-12-28T04:48:31.328Z,12.73
2022-12-28T04:52:48.372Z,9.88
2022-12-28T04:57:05.250Z,8.30
2022-12-28T05:01:22.618Z,8.77
2022-12-28T05:05:39.546Z,8.50
2022-12-28T05:09:56.654Z,10.73
2022-12-28T05:14:13.650Z,11.85
2022-12-28T05:18:30.943Z,9.15
2022-12-28T05:22:47.784Z,13.57
2022-12-28T05:27:04.906Z,25.75
2022-12-28T05:31:23.431Z,37.03
2022-12-28T05:35:40.575Z,51.75
2022-12-28T05:39:57.604Z,37.08
2022-12-28T05:44:14.634Z,26.90
2022-12-28T05:48:36.111Z,28.50
2022-12-28T05:52:53.263Z,25.38
2022-12-28T05:57:10.117Z,21.52
2022-12-28T06:01:34.699Z,20.40
2022-12-28T06:05:51.626Z,20.90
2022-12-28T06:10:09.349Z,19.58
2022-12-28T06:14:26.280Z,15.85
2022-12-28T06:18:44.343Z,15.93
2022-12-28T06:23:01.233Z,13.02
2022-12-28T06:27:19.237Z,17.05
2022-12-28T06:31:40.124Z,15.10
2022-12-28T06:35:57.303Z,43.03
2022-12-28T06:40:14.869Z,37.87
2022-12-28T06:44:31.717Z,44.07
2022-12-28T06:48:49.468Z,56.42
2022-12-28T06:53:06.314Z,48.85
2022-12-28T06:57:23.382Z,31.20
2022-12-28T07:01:44.584Z,33.40
2022-12-28T07:06:03.827Z,36.58
2022-12-28T07:10:20.680Z,22.67
2022-12-28T07:14:37.744Z,19.88
2022-12-28T07:18:56.029Z,13.70
2022-12-28T07:23:13.145Z,10.57
2022-12-28T07:27:30.028Z,10.35
2022-12-28T07:31:47.174Z,13.85
2022-12-28T07:36:10.262Z,10.25
2022-12-28T07:40:27.673Z,9.45
2022-12-28T07:44:49.149Z,5.70
2022-12-28T07:49:07.327Z,11.93
2022-12-28T07:53:24.151Z,9.88
2022-12-28T07:57:41.255Z,10.95
2022-12-28T08:01:58.320Z,8.60
2022-12-28T08:06:20.405Z,11.07
2022-12-28T08:10:37.268Z,14.23
2022-12-28T08:14:54.341Z,7.63
2022-12-28T08:19:12.303Z,12.07
2022-12-28T08:23:32.240Z,11.75
2022-12-28T08:27:49.125Z,13.48
2022-12-28T08:32:07.737Z,19.27
2022-12-28T08:36:24.884Z,17.25
2022-12-28T08:40:42.309Z,19.20
2022-12-28T08:44:59.155Z,21.15
2022-12-28T08:49:16.235Z,28.58
2022-12-28T08:53:33.940Z,28.40
2022-12-28T08:57:50.789Z,28.20
2022-12-28T09:02:07.883Z,33.33
2022-12-28T09:06:30.821Z,33.17
2022-12-28T09:10:47.894Z,104.95
2022-12-28T09:15:05.358Z,100.78
2022-12-28T09:19:22.660Z,108.27
2022-12-28T09:23:40.793Z,112.87
2022-12-28T09:27:59.646Z,61.58
2022-12-28T09:32:16.661Z,67.43
2022-12-28T09:36:41.039Z,47.08
2022-12-28T09:40:59.068Z,38.10
2022-12-28T09:45:21.906Z,43.83
2022-12-28T09:49:57.422Z,36.78
2022-12-28T09:54:14.460Z,39.63
2022-12-28T09:58:34.049Z,26.83
2022-12-28T10:03:20.903Z,30.80
2022-12-28T10:07:38.151Z,26.33
2022-12-28T10:11:55.523Z,32.13
2022-12-28T10:16:20.921Z,29.97
2022-12-28T10:20:37.937Z,27.42
2022-12-28T10:24:55.074Z,15.13
2022-12-28T10:29:23.538Z,25.65
2022-12-28T10:33:50.341Z,18.88
2022-12-28T10:38:24.041Z,32.75
2022-12-28T10:42:44.390Z,50.22
2022-12-28T10:47:05.296Z,33.67
2022-12-28T10:51:27.897Z,35.47
2022-12-28T10:55:44.870Z,29.20
2022-12-28T11:00:22.564Z,40.72
2022-12-28T11:04:53.984Z,37.55
2022-12-28T11:09:36.484Z,33.20
2022-12-28T11:14:24.633Z,21.73
2022-12-28T11:18:42.000Z,20.95
2022-12-28T11:22:59.086Z,35.23
2022-12-28T11:27:19.900Z,35.00
2022-12-28T11:32:01.314Z,30.67
2022-12-28T11:36:22.917Z,31.38
2022-12-28T11:40:50.613Z,35.75
2022-12-28T11:45:17.247Z,25.80
2022-12-28T11:49:36.034Z,28.08
2022-12-28T11:54:24.075Z,29.90
2022-12-28T12:03:01.536Z,31.63
2022-12-28T12:07:44.645Z,25.60
2022-12-28T12:12:24.606Z,15.90
2022-12-28T12:16:52.336Z,15.50
2022-12-28T12:21:15.844Z,19.65
2022-12-28T12:25:47.483Z,17.55
2022-12-28T12:30:18.428Z,18.95
2022-12-28T12:34:58.908Z,30.95
2022-12-28T12:39:47.360Z,61.92
2022-12-28T12:44:15.177Z,15.55
2022-12-28T12:49:02.426Z,13.60
2022-12-28T12:54:13.380Z,16.60
2022-12-28T12:59:24.769Z,13.55
2022-12-28T13:03:53.132Z,10.55
2022-12-28T13:08:40.481Z,14.43
2022-12-28T13:13:00.866Z,15.05
2022-12-28T13:17:21.947Z,11.30
2022-12-28T13:21:45.881Z,46.03
2022-12-28T13:26:03.637Z,30.35
2022-12-28T13:30:22.962Z,47.55
2022-12-28T13:34:41.221Z,34.95
2022-12-28T13:44:08.795Z,11.27
2022-12-28T13:48:27.061Z,39.40
2022-12-28T13:52:59.878Z,72.68
2022-12-28T13:57:45.854Z,40.88
2022-12-28T14:01:56.270Z,49.70
2022-12-28T14:06:18.916Z,15.60
2022-12-28T14:10:36.791Z,26.10
2022-12-28T14:14:53.957Z,9.07
2022-12-28T14:19:11.888Z,9.50
2022-12-28T14:23:33.078Z,11.60
2022-12-28T14:28:06.502Z,10.80
2022-12-28T14:32:23.736Z,10.55
2022-12-28T14:36:49.889Z,9.77
2022-12-28T14:41:07.252Z,17.25
2022-12-28T14:46:07.011Z,10.53
2022-12-28T14:50:21.253Z,17.52
2022-12-28T14:55:20.121Z,20.35
2022-12-28T14:59:39.730Z,23.73
2022-12-28T15:03:58.873Z,22.42
2022-12-28T15:08:15.901Z,18.35
2022-12-28T15:12:36.187Z,27.02
2022-12-28T15:16:53.119Z,53.22
2022-12-28T15:21:12.972Z,31.63
2022-12-28T15:25:33.971Z,28.35
2022-12-28T15:30:07.837Z,18.90
2022-12-28T15:34:26.729Z,127.30
2022-12-28T15:38:43.922Z,43.45
2022-12-28T15:43:03.630Z,30.95
2022-12-28T15:47:21.274Z,36.92
2022-12-28T15:51:38.245Z,41.65
2022-12-28T15:56:00.940Z,47.38
2022-12-28T16:00:19.145Z,29.83
2022-12-28T16:04:36.196Z,31.85
2022-12-28T16:08:55.368Z,34.92
2022-12-28T16:13:12.332Z,41.53
2022-12-28T16:17:29.413Z,27.55
2022-12-28T16:21:48.490Z,39.72
2022-12-28T16:26:08.491Z,30.90
2022-12-28T16:30:25.482Z,119.07
2022-12-28T16:34:42.717Z,72.90
2022-12-28T16:39:00.110Z,83.22
2022-12-28T16:43:18.725Z,62.63
2022-12-28T16:47:40.883Z,54.30
2022-12-28T16:52:01.467Z,44.08
2022-12-28T16:56:18.386Z,42.60
2022-12-28T17:00:35.813Z,46.80
2022-12-28T17:04:52.710Z,29.80
2022-12-28T17:09:10.204Z,33.30
2022-12-28T17:13:27.130Z,44.20
2022-12-28T17:17:44.497Z,55.67
2022-12-28T17:22:01.863Z,58.87
2022-12-28T17:26:19.311Z,77.43
2022-12-28T17:30:36.284Z,60.83
2022-12-28T17:34:53.732Z,66.80
2022-12-28T17:39:10.691Z,126.23
2022-12-28T17:43:28.719Z,59.72
2022-12-28T17:47:45.883Z,65.28
2022-12-28T17:52:03.425Z,66.32
2022-12-28T17:56:20.775Z,33.38
2022-12-28T18:00:37.709Z,26.27
2022-12-28T18:04:54.752Z,23.20
2022-12-28T18:09:11.855Z,40.83
2022-12-28T18:13:29.018Z,40.70
2022-12-28T18:17:46.010Z,32.00
2022-12-28T18:22:03.523Z,30.98
2022-12-28T18:26:24.032Z,90.63
2022-12-28T18:30:42.640Z,61.75
2022-12-28T18:34:59.542Z,81.53
2022-12-28T18:39:16.649Z,92.88
2022-12-28T18:43:33.563Z,71.20
2022-12-28T18:47:50.614Z,53.15
2022-12-28T18:52:07.875Z,55.17
2022-12-28T18:56:24.970Z,49.13
2022-12-28T19:00:42.073Z,61.60
2022-12-28T19:04:59.054Z,71.95
2022-12-28T19:09:16.351Z,74.80
2022-12-28T19:13:35.978Z,77.88
2022-12-28T19:17:52.998Z,72.57
2022-12-28T19:22:10.074Z,72.28
2022-12-28T19:26:27.107Z,56.67
2022-12-28T19:30:44.215Z,76.70
2022-12-28T19:35:01.029Z,125.53
2022-12-28T19:39:18.225Z,113.30
2022-12-28T19:43:35.997Z,108.00
2022-12-28T19:47:53.043Z,116.05
2022-12-28T19:52:10.552Z,117.10
2022-12-28T19:56:28.255Z,108.50
2022-12-28T20:00:45.117Z,100.00
2022-12-28T20:05:02.386Z,81.82
2022-12-28T20:09:19.304Z,83.22
2022-12-28T20:13:36.420Z,68.85
2022-12-28T20:17:53.466Z,70.85
2022-12-28T20:22:10.690Z,57.25
2022-12-28T20:26:29.141Z,50.35
2022-12-28T20:30:51.051Z,49.92
2022-12-28T20:35:08.037Z,49.10
2022-12-28T20:39:25.092Z,37.47
2022-12-28T20:43:42.065Z,38.28
2022-12-28T20:47:59.061Z,34.83
2022-12-28T20:52:16.175Z,35.75
2022-12-28T20:56:35.110Z,43.03
2022-12-28T21:00:52.354Z,46.60
2022-12-28T21:05:09.853Z,41.88
2022-12-28T21:09:27.004Z,36.20
2022-12-28T21:13:44.869Z,29.33
2022-12-28T21:18:03.050Z,29.63
2022-12-28T21:22:20.094Z,30.95
2022-12-28T21:26:37.500Z,27.83
2022-12-28T21:30:56.060Z,20.50
2022-12-28T21:35:13.254Z,28.05
2022-12-28T21:39:30.073Z,23.45
2022-12-28T21:43:47.157Z,26.38
2022-12-28T21:48:04.356Z,29.20
2022-12-28T21:52:21.906Z,28.10
2022-12-28T21:56:39.926Z,26.25
2022-12-28T22:01:18.983Z,27.17
2022-12-28T22:05:47.727Z,28.73
2022-12-28T22:10:23.853Z,26.77
2022-12-28T22:14:40.942Z,29.10
2022-12-28T22:19:02.738Z,27.40
2022-12-28T22:23:20.597Z,29.10
2022-12-28T22:27:37.514Z,29.15
2022-12-28T22:31:55.935Z,39.00
2022-12-28T22:36:16.769Z,32.33
2022-12-28T22:40:33.647Z,24.00
2022-12-28T22:44:51.538Z,31.02
2022-12-28T22:49:08.363Z,26.02
2022-12-28T22:53:25.411Z,30.15
2022-12-28T22:57:42.445Z,28.42
2022-12-28T23:01:59.926Z,30.40
2022-12-28T23:06:19.510Z,32.25
2022-12-28T23:10:36.560Z,27.05
2022-12-28T23:15:12.437Z,31.90
2022-12-28T23:19:49.306Z,23.10
2022-12-28T23:24:32.371Z,24.92
2022-12-28T23:28:49.508Z,16.75
2022-12-28T23:33:06.471Z,17.98
2022-12-28T23:37:23.579Z,21.45
2022-12-28T23:41:49.622Z,17.42
2022-12-28T23:46:06.675Z,20.38
2022-12-28T23:50:23.841Z,21.52
2022-12-28T23:54:40.705Z,17.35
2022-12-28T23:58:58.020Z,22.23
